Time;durP1;ratioP1;P1;durP2;ratioP2;P2;SDS_P1;SDS_P2;PMS_P1;PMS_P2;Temp;Humidity;BMP_temperature;BMP_pressure;BME280_temperature;BME280_humidity;BME280_pressure;Samples;Min_cycle;Max_cycle;Signal;HPM_P1;HPM_P2
2023/05/11 00:01:11;;;;;;;29.33;23.70;;;12.50;99.90;;;;;;4981606;28;20042;-83
2023/05/11 00:03:37;;;;;;;30.75;23.88;;;12.50;99.90;;;;;;4958384;29;20398;-83
2023/05/11 00:06:03;;;;;;;32.53;24.95;;;12.50;99.90;;;;;;4925519;29;20570;-84
2023/05/11 00:08:29;;;;;;;32.00;24.85;;;12.40;99.90;;;;;;4924894;29;20042;-84
2023/05/11 00:10:54;;;;;;;29.33;23.63;;;12.40;99.90;;;;;;4955730;29;20053;-84
2023/05/11 00:13:20;;;;;;;30.08;23.75;;;12.40;99.90;;;;;;4923842;29;20043;-83
2023/05/11 00:15:46;;;;;;;30.58;23.25;;;12.40;99.90;;;;;;4955553;28;20054;-83
2023/05/11 00:18:12;;;;;;;31.90;24.00;;;12.40;99.90;;;;;;4954720;29;20459;-83
2023/05/11 00:20:38;;;;;;;30.40;24.30;;;12.30;99.90;;;;;;4955884;29;20039;-83
2023/05/11 00:23:03;;;;;;;30.40;24.00;;;12.30;99.90;;;;;;4955533;28;20403;-83
2023/05/11 00:25:29;;;;;;;30.90;24.35;;;12.30;99.90;;;;;;4923686;29;20043;-83
2023/05/11 00:27:55;;;;;;;29.00;22.75;;;12.30;99.90;;;;;;4923859;29;20398;-83
2023/05/11 00:30:21;;;;;;;29.33;23.40;;;12.40;99.90;;;;;;4923310;29;20141;-82
2023/05/11 00:32:47;;;;;;;28.38;21.55;;;12.40;99.90;;;;;;4923445;29;20047;-83
2023/05/11 00:35:13;;;;;;;32.75;24.15;;;12.40;99.90;;;;;;4955042;28;20054;-83
2023/05/11 00:37:39;;;;;;;34.53;24.05;;;12.40;99.90;;;;;;4954939;29;20407;-83
2023/05/11 00:40:06;;;;;;;32.65;24.98;;;12.40;99.90;;;;;;4955056;29;20050;-83
2023/05/11 00:42:32;;;;;;;34.83;26.33;;;12.40;99.90;;;;;;4923532;29;20047;-83
2023/05/11 00:44:58;;;;;;;37.72;27.05;;;12.30;99.90;;;;;;4939324;29;20055;-84
2023/05/11 00:47:24;;;;;;;37.53;26.80;;;12.30;99.90;;;;;;4907610;29;20049;-84
2023/05/11 00:49:52;;;;;;;38.63;27.23;;;12.20;99.90;;;;;;4938829;29;20074;-84
2023/05/11 00:52:20;;;;;;;35.88;26.63;;;12.20;99.90;;;;;;4954716;29;20058;-83
2023/05/11 00:54:46;;;;;;;36.78;27.48;;;12.20;99.90;;;;;;4938734;29;20055;-84
2023/05/11 00:57:13;;;;;;;39.45;28.23;;;12.20;99.90;;;;;;4907314;29;20047;-85
2023/05/11 00:59:38;;;;;;;42.55;29.45;;;12.20;99.90;;;;;;4923140;29;20514;-84
2023/05/11 01:02:04;;;;;;;38.63;28.48;;;12.20;99.90;;;;;;4954797;29;20047;-84
2023/05/11 01:04:31;;;;;;;41.42;29.02;;;12.20;99.90;;;;;;4938522;29;20047;-83
2023/05/11 01:07:19;;;;;;;43.85;29.40;;;12.10;99.90;;;;;;4922924;29;20035;-83
2023/05/11 01:10:05;;;;;;;44.45;30.25;;;12.10;99.90;;;;;;4922904;29;20525;-84
2023/05/11 01:12:46;;;;;;;47.22;31.30;;;12.20;99.90;;;;;;4922802;29;20486;-83
2023/05/11 01:15:41;;;;;;;43.30;30.98;;;12.10;99.90;;;;;;4922555;29;20043;-84
2023/05/11 01:18:32;;;;;;;45.85;31.27;;;12.10;99.90;;;;;;4930594;29;20058;-84
2023/05/11 01:21:00;;;;;;;55.63;33.25;;;12.10;99.90;;;;;;4954284;29;20076;-84
2023/05/11 01:23:50;;;;;;;42.95;30.40;;;12.10;99.90;;;;;;4954501;29;20133;-84
2023/05/11 01:26:40;;;;;;;44.97;30.45;;;12.10;99.90;;;;;;4922274;29;20043;-83
2023/05/11 01:29:29;;;;;;;50.25;32.20;;;12.20;99.90;;;;;;4953768;28;20043;-83
2023/05/11 01:31:57;;;;;;;55.78;33.80;;;12.20;99.90;;;;;;4954379;29;20542;-84
2023/05/11 01:34:25;;;;;;;54.65;34.70;;;12.20;99.90;;;;;;4954417;29;20039;-79
2023/05/11 01:37:03;;;;;;;55.58;34.67;;;12.10;99.90;;;;;;4922509;29;20205;-79
2023/05/11 01:39:37;;;;;;;56.08;35.83;;;12.10;99.90;;;;;;4954212;29;20141;-79
2023/05/11 01:42:08;;;;;;;58.17;37.75;;;12.10;99.90;;;;;;4954008;29;20043;-79
2023/05/11 01:44:38;;;;;;;62.00;38.30;;;12.10;99.90;;;;;;4954191;29;20495;-79
2023/05/11 01:47:05;;;;;;;60.33;37.00;;;12.00;99.90;;;;;;4953975;29;20054;-79
2023/05/11 01:49:37;;;;;;;66.85;39.67;;;12.00;99.90;;;;;;4953746;28;20047;-79
2023/05/11 01:52:07;;;;;;;54.78;36.72;;;12.10;99.90;;;;;;4953781;29;20047;-79
2023/05/11 01:54:34;;;;;;;58.10;36.97;;;12.10;99.90;;;;;;4937841;29;20051;-80
2023/05/11 01:57:01;;;;;;;60.25;38.63;;;12.10;99.90;;;;;;4922059;29;20107;-79
2023/05/11 01:59:28;;;;;;;61.00;38.58;;;12.10;99.90;;;;;;4953786;29;20050;-79
2023/05/11 02:01:54;;;;;;;57.03;37.60;;;12.10;99.90;;;;;;4953702;29;20039;-80
2023/05/11 02:04:22;;;;;;;52.28;35.47;;;12.10;99.90;;;;;;4953715;28;20039;-80
2023/05/11 02:06:48;;;;;;;58.80;37.25;;;12.10;99.90;;;;;;4921786;29;20194;-79
2023/05/11 02:09:17;;;;;;;68.63;40.83;;;12.10;99.90;;;;;;4922152;29;20082;-79
2023/05/11 02:11:46;;;;;;;53.92;36.80;;;12.10;99.90;;;;;;4953707;29;20099;-79
2023/05/11 02:14:14;;;;;;;56.17;37.58;;;12.00;99.90;;;;;;4953965;29;20043;-80
2023/05/11 02:16:40;;;;;;;54.75;37.78;;;12.10;99.90;;;;;;4937987;29;20502;-79
2023/05/11 02:19:07;;;;;;;61.60;40.25;;;12.10;99.90;;;;;;4906307;29;20494;-79
2023/05/11 02:21:34;;;;;;;61.63;41.28;;;12.10;99.90;;;;;;4953548;28;20094;-79
2023/05/11 02:24:05;;;;;;;71.38;43.67;;;12.10;99.90;;;;;;4921851;29;20043;-79
2023/05/11 02:26:31;;;;;;;77.28;45.72;;;12.10;99.90;;;;;;4953545;29;20047;-79
2023/05/11 02:28:57;;;;;;;66.70;42.58;;;12.00;99.90;;;;;;4921729;29;20094;-79
2023/05/11 02:31:31;;;;;;;61.65;40.97;;;12.00;99.90;;;;;;4953506;28;20494;-79
2023/05/11 02:34:19;;;;;;;62.08;40.95;;;12.00;99.90;;;;;;4953560;29;20035;-79
2023/05/11 02:36:48;;;;;;;63.63;40.15;;;12.00;99.90;;;;;;4937914;29;20133;-79
2023/05/11 02:39:20;;;;;;;63.35;39.78;;;12.00;99.90;;;;;;4937422;28;20055;-80
2023/05/11 02:41:56;;;;;;;71.97;40.38;;;11.90;99.90;;;;;;4956681;29;20051;-79
2023/05/11 02:44:25;;;;;;;63.53;40.20;;;11.90;99.90;;;;;;4957042;29;20050;-80
2023/05/11 02:46:53;;;;;;;63.10;38.50;;;11.90;99.90;;;;;;4956918;29;20039;-80
2023/05/11 02:49:23;;;;;;;66.10;38.35;;;11.90;99.90;;;;;;4925056;29;20094;-81
2023/05/11 02:51:51;;;;;;;63.35;38.03;;;11.90;99.90;;;;;;4957065;29;20502;-80
2023/05/11 02:54:18;;;;;;;75.75;40.50;;;11.90;99.90;;;;;;4925086;29;20050;-80
2023/05/11 02:56:45;;;;;;;63.30;37.78;;;11.90;99.90;;;;;;4957146;29;20043;-80
2023/05/11 02:59:12;;;;;;;59.40;37.47;;;11.80;99.90;;;;;;4925073;29;20043;-80
2023/05/11 03:01:39;;;;;;;61.22;37.22;;;11.80;99.90;;;;;;4925187;29;20487;-81
2023/05/11 03:04:05;;;;;;;55.90;35.95;;;11.80;99.90;;;;;;4924948;29;20126;-81
2023/05/11 03:06:32;;;;;;;61.05;36.20;;;11.80;99.90;;;;;;4924761;29;20364;-80
2023/05/11 03:08:58;;;;;;;59.40;37.28;;;11.80;99.90;;;;;;4956658;29;20043;-80
2023/05/11 03:11:24;;;;;;;54.00;34.75;;;11.80;99.90;;;;;;4940547;29;20066;-81
2023/05/11 03:13:52;;;;;;;51.28;33.72;;;11.80;99.90;;;;;;4924749;29;20043;-81
2023/05/11 03:16:18;;;;;;;51.17;33.70;;;11.80;99.90;;;;;;4924978;29;20046;-81
2023/05/11 03:18:45;;;;;;;50.70;33.03;;;11.80;99.90;;;;;;4940379;29;20058;-81
2023/05/11 03:21:13;;;;;;;49.97;32.47;;;11.80;99.90;;;;;;4924673;29;20522;-81
2023/05/11 03:23:40;;;;;;;50.78;32.10;;;11.80;99.90;;;;;;4956345;29;20058;-80
2023/05/11 03:26:07;;;;;;;54.50;33.45;;;11.80;99.90;;;;;;4940316;29;20521;-81
2023/05/11 03:28:34;;;;;;;52.42;33.50;;;11.80;99.90;;;;;;4956303;29;20039;-81
2023/05/11 03:31:00;;;;;;;55.60;33.80;;;11.70;99.90;;;;;;4924577;29;20043;-80
2023/05/11 03:33:26;;;;;;;57.47;33.97;;;11.70;99.90;;;;;;4908642;29;20505;-80
2023/05/11 03:35:52;;;;;;;42.65;28.10;;;11.70;99.90;;;;;;4924687;29;20133;-83
2023/05/11 03:38:22;;;;;;;39.10;25.38;;;11.70;99.90;;;;;;4956005;29;20054;-84
2023/05/11 03:40:50;;;;;;;41.30;26.10;;;11.60;99.90;;;;;;4940095;29;20119;-84
2023/05/11 03:43:18;;;;;;;58.55;30.13;;;11.60;99.90;;;;;;4956069;29;20132;-83
2023/05/11 03:45:45;;;;;;;45.65;28.10;;;11.50;99.90;;;;;;4908391;29;20039;-83
2023/05/11 03:48:14;;;;;;;44.13;28.60;;;11.50;99.90;;;;;;4924165;29;20062;-84
2023/05/11 03:50:41;;;;;;;50.72;30.88;;;11.50;99.90;;;;;;4908330;28;20043;-84
2023/05/11 03:53:07;;;;;;;52.72;31.77;;;11.50;99.90;;;;;;4924126;29;20055;-83
2023/05/11 03:55:34;;;;;;;59.28;33.20;;;11.50;99.90;;;;;;4923994;29;20059;-84
2023/05/11 03:58:00;;;;;;;60.53;30.17;;;11.50;99.90;;;;;;4939756;29;20047;-84
2023/05/11 04:00:26;;;;;;;44.50;29.35;;;11.50;99.90;;;;;;4956002;29;20513;-85
2023/05/11 04:02:53;;;;;;;54.88;30.35;;;11.50;99.90;;;;;;4955729;29;20126;-84
2023/05/11 04:05:19;;;;;;;44.75;28.73;;;11.50;99.90;;;;;;4955531;29;20051;-84
2023/05/11 04:07:45;;;;;;;40.67;27.90;;;11.50;99.90;;;;;;4924153;29;20043;-84
2023/05/11 04:10:11;;;;;;;50.47;29.83;;;11.50;99.90;;;;;;4955498;29;20040;-84
2023/05/11 04:12:36;;;;;;;63.55;31.08;;;11.50;99.90;;;;;;4939407;29;20039;-83
2023/05/11 04:15:03;;;;;;;56.15;30.30;;;11.50;99.90;;;;;;4955468;29;20145;-84
2023/05/11 04:17:29;;;;;;;50.75;28.08;;;11.40;99.90;;;;;;4955642;29;20593;-84
2023/05/11 04:19:55;;;;;;;56.92;28.90;;;11.40;99.90;;;;;;4908268;29;20090;-84
2023/05/11 04:22:21;;;;;;;57.30;28.45;;;11.40;99.90;;;;;;4923532;29;20061;-84
2023/05/11 04:24:47;;;;;;;69.53;29.20;;;11.40;99.90;;;;;;4923790;29;20561;-84
2023/05/11 04:27:15;;;;;;;49.83;26.88;;;11.40;99.90;;;;;;4923765;29;20039;-84
2023/05/11 04:29:41;;;;;;;41.05;25.65;;;11.40;99.90;;;;;;4955497;29;20035;-84
2023/05/11 04:32:06;;;;;;;46.65;26.45;;;11.40;99.90;;;;;;4955037;29;20546;-85
2023/05/11 04:34:32;;;;;;;37.40;25.20;;;11.40;99.90;;;;;;4923361;29;20043;-85
2023/05/11 04:36:58;;;;;;;45.85;27.25;;;11.40;99.90;;;;;;4923522;29;20510;-84
2023/05/11 04:39:24;;;;;;;42.95;26.45;;;11.40;99.90;;;;;;4954898;29;20043;-84
2023/05/11 04:41:49;;;;;;;37.13;25.15;;;11.50;99.90;;;;;;4955021;29;20035;-84
2023/05/11 04:44:18;;;;;;;41.63;27.08;;;11.50;99.90;;;;;;4923421;29;20046;-85
2023/05/11 04:46:44;;;;;;;42.03;26.25;;;11.50;99.90;;;;;;4907154;29;20048;-84
2023/05/11 04:49:10;;;;;;;53.30;28.02;;;11.50;99.90;;;;;;4954767;29;20039;-84
2023/05/11 04:51:35;;;;;;;45.45;27.63;;;11.60;99.90;;;;;;4954751;29;20039;-84
2023/05/11 04:54:01;;;;;;;45.92;26.05;;;11.60;99.90;;;;;;4922448;29;20051;-84
2023/05/11 04:56:27;;;;;;;42.13;25.42;;;11.60;99.90;;;;;;4922929;29;20503;-84
2023/05/11 04:58:53;;;;;;;45.45;27.83;;;11.60;99.90;;;;;;4923161;29;20506;-84
2023/05/11 05:01:18;;;;;;;43.20;27.17;;;11.60;99.90;;;;;;4922924;29;20047;-84
2023/05/11 05:03:47;;;;;;;46.22;27.67;;;11.60;99.90;;;;;;4954021;28;20430;-84
2023/05/11 05:06:13;;;;;;;44.40;26.92;;;11.60;99.90;;;;;;4938545;29;20126;-84
2023/05/11 05:08:38;;;;;;;48.08;26.85;;;11.60;99.90;;;;;;4922642;29;20131;-84
2023/05/11 05:11:05;;;;;;;78.18;30.67;;;11.60;99.90;;;;;;4922649;29;20414;-84
2023/05/11 05:13:30;;;;;;;40.83;25.25;;;11.70;99.90;;;;;;4938498;29;20050;-84
2023/05/11 05:15:56;;;;;;;65.05;29.70;;;11.70;99.90;;;;;;4954348;29;20043;-84
2023/05/11 05:18:22;;;;;;;78.75;29.88;;;11.70;99.90;;;;;;4922589;29;20047;-84
2023/05/11 05:20:48;;;;;;;77.28;30.50;;;11.70;99.90;;;;;;4922884;29;20235;-84
2023/05/11 05:23:14;;;;;;;53.45;28.33;;;11.70;99.90;;;;;;4954276;29;20487;-84
2023/05/11 05:25:39;;;;;;;46.40;28.40;;;11.70;99.90;;;;;;4906579;29;20134;-84
2023/05/11 05:28:05;;;;;;;78.50;30.77;;;11.70;99.90;;;;;;4906671;29;20062;-85
2023/05/11 05:30:31;;;;;;;50.72;27.92;;;11.80;99.90;;;;;;4906681;29;20043;-84
2023/05/11 05:32:57;;;;;;;38.67;25.38;;;11.80;99.90;;;;;;4954362;29;20108;-84
2023/05/11 05:35:23;;;;;;;43.95;25.95;;;11.80;99.90;;;;;;4954473;29;20043;-81
2023/05/11 05:37:48;;;;;;;51.03;26.83;;;11.90;99.90;;;;;;4954022;28;20517;-81
2023/05/11 05:40:14;;;;;;;46.47;27.25;;;11.90;99.90;;;;;;4906507;29;20507;-81
2023/05/11 05:42:40;;;;;;;45.17;26.92;;;11.80;99.90;;;;;;4954028;29;20538;-81
2023/05/11 05:45:06;;;;;;;50.58;27.50;;;11.80;99.90;;;;;;4922431;29;20062;-81
2023/05/11 05:47:32;;;;;;;46.55;27.15;;;11.90;99.90;;;;;;4906554;29;20038;-81
2023/05/11 05:49:58;;;;;;;47.22;26.58;;;11.90;99.90;;;;;;4938234;29;20043;-81
2023/05/11 05:52:24;;;;;;;44.17;26.33;;;11.90;99.90;;;;;;4938283;29;20039;-81
2023/05/11 05:54:50;;;;;;;40.00;26.08;;;12.00;99.90;;;;;;4890757;29;20142;-81
2023/05/11 05:57:15;;;;;;;52.60;28.75;;;12.20;99.90;;;;;;4953852;29;20471;-81
2023/05/11 05:59:41;;;;;;;37.80;25.17;;;12.10;99.90;;;;;;4954125;29;20032;-81
2023/05/11 06:02:07;;;;;;;51.70;27.85;;;12.10;99.90;;;;;;4921995;29;20474;-82
2023/05/11 06:04:33;;;;;;;44.10;27.20;;;12.20;99.90;;;;;;4953870;29;20047;-81
2023/05/11 06:06:59;;;;;;;40.05;26.27;;;12.20;99.90;;;;;;4922010;29;20098;-82
2023/05/11 06:09:25;;;;;;;51.45;28.42;;;12.20;99.90;;;;;;4954166;29;20557;-82
2023/05/11 06:11:52;;;;;;;44.10;27.08;;;12.30;99.90;;;;;;4909878;28;163584;-81
2023/05/11 06:14:19;;;;;;;43.42;26.25;;;12.20;99.90;;;;;;4920023;29;20043;-81
2023/05/11 06:16:44;;;;;;;39.63;25.98;;;12.30;99.90;;;;;;4958198;29;20078;-81
2023/05/11 06:19:12;;;;;;;52.95;29.83;;;12.30;99.90;;;;;;4926060;29;20494;-81
2023/05/11 06:21:40;;;;;;;40.83;26.40;;;12.20;99.90;;;;;;4910653;29;20043;-81
2023/05/11 06:24:06;;;;;;;43.40;27.25;;;12.20;99.90;;;;;;4926281;29;20134;-81
2023/05/11 06:26:32;;;;;;;55.75;30.15;;;12.30;99.90;;;;;;4909137;28;162331;-81
2023/05/11 06:28:57;;;;;;;40.95;26.02;;;12.30;99.90;;;;;;4957755;29;20035;-82
2023/05/11 06:31:23;;;;;;;50.85;28.50;;;12.40;99.90;;;;;;4941369;29;20046;-81
2023/05/11 06:33:49;;;;;;;37.53;25.65;;;12.40;99.90;;;;;;4958414;28;20043;-81
2023/05/11 06:36:15;;;;;;;44.65;27.25;;;12.50;99.90;;;;;;4926594;29;20614;-81
2023/05/11 06:38:41;;;;;;;37.20;24.88;;;12.60;99.90;;;;;;4925961;29;20130;-81
2023/05/11 06:41:09;;;;;;;37.15;24.15;;;12.60;99.90;;;;;;4925975;29;20082;-81
2023/05/11 06:43:36;;;;;;;39.88;25.90;;;12.60;99.90;;;;;;4925808;29;20045;-81
2023/05/11 06:46:02;;;;;;;38.42;25.55;;;12.60;99.90;;;;;;4909926;29;20050;-81
2023/05/11 06:48:28;;;;;;;37.80;25.75;;;12.60;99.90;;;;;;4932594;29;20063;-81
2023/05/11 06:50:55;;;;;;;37.42;24.25;;;12.60;99.90;;;;;;4930584;29;20418;-80
2023/05/11 06:53:21;;;;;;;40.50;26.08;;;12.60;99.90;;;;;;4949642;29;20126;-81
2023/05/11 06:55:47;;;;;;;40.38;25.73;;;12.50;99.90;;;;;;4936258;29;20115;-81
2023/05/11 06:58:13;;;;;;;43.80;27.23;;;12.60;99.90;;;;;;4960515;29;20039;-81
2023/05/11 07:00:39;;;;;;;40.30;27.25;;;12.60;99.90;;;;;;4950399;29;20058;-81
2023/05/11 07:03:05;;;;;;;40.97;26.17;;;12.60;99.90;;;;;;4966305;28;20075;-81
2023/05/11 07:05:31;;;;;;;41.60;28.08;;;12.60;99.90;;;;;;4982373;28;20035;-81
2023/05/11 07:07:57;;;;;;;46.47;28.23;;;12.60;99.90;;;;;;4950299;29;20035;-81
2023/05/11 07:10:23;;;;;;;45.30;27.27;;;12.70;99.90;;;;;;4981955;28;20063;-80
2023/05/11 07:12:49;;;;;;;46.17;29.08;;;12.70;99.90;;;;;;4950268;28;20276;-80
2023/05/11 07:15:15;;;;;;;37.80;26.02;;;12.70;99.90;;;;;;4977320;28;20043;-80
2023/05/11 07:17:41;;;;;;;39.05;26.83;;;12.90;99.90;;;;;;4958824;29;20065;-80
2023/05/11 07:20:07;;;;;;;42.22;26.77;;;13.00;99.90;;;;;;4941635;29;20050;-80
2023/05/11 07:22:33;;;;;;;36.67;24.60;;;13.10;99.90;;;;;;4957038;29;20043;-80
2023/05/11 07:24:59;;;;;;;33.60;23.85;;;13.20;99.90;;;;;;4924824;29;20043;-80
2023/05/11 07:27:25;;;;;;;34.67;24.10;;;13.30;99.90;;;;;;4924140;29;20051;-80
2023/05/11 07:29:51;;;;;;;34.50;24.00;;;13.40;99.90;;;;;;4909592;29;20094;-80
2023/05/11 07:32:17;;;;;;;30.05;22.60;;;13.40;99.90;;;;;;4956883;29;20119;-80
2023/05/11 07:34:43;;;;;;;33.70;23.20;;;13.50;99.90;;;;;;4925200;29;20035;-80
2023/05/11 07:37:10;;;;;;;30.17;21.52;;;13.50;99.90;;;;;;4924870;29;20039;-82
2023/05/11 07:39:36;;;;;;;32.92;23.05;;;13.70;99.90;;;;;;4940594;29;20074;-83
2023/05/11 07:42:02;;;;;;;29.67;22.52;;;13.70;99.90;;;;;;4908821;29;20474;-83
2023/05/11 07:44:28;;;;;;;31.63;23.30;;;13.70;99.90;;;;;;4909034;29;20082;-83
2023/05/11 07:46:54;;;;;;;29.00;21.67;;;13.70;99.90;;;;;;4908703;29;20074;-83
2023/05/11 07:49:20;;;;;;;28.88;21.98;;;13.70;99.90;;;;;;4924375;29;20051;-83
2023/05/11 07:51:46;;;;;;;28.65;21.27;;;13.70;99.90;;;;;;4908480;29;20113;-83
2023/05/11 07:54:11;;;;;;;29.58;22.30;;;13.70;99.90;;;;;;4924390;29;20097;-83
2023/05/11 07:56:37;;;;;;;30.17;22.35;;;13.60;99.90;;;;;;4955776;29;20407;-83
2023/05/11 07:59:03;;;;;;;31.02;23.20;;;13.70;99.90;;;;;;4955915;29;20047;-83
2023/05/11 08:01:29;;;;;;;33.42;24.38;;;13.60;99.90;;;;;;4924008;29;20182;-84
2023/05/11 08:03:55;;;;;;;32.72;23.50;;;13.50;99.90;;;;;;4908241;29;20047;-83
2023/05/11 08:06:20;;;;;;;34.50;25.13;;;13.50;99.90;;;;;;4955656;29;20039;-83
2023/05/11 08:08:46;;;;;;;36.50;25.42;;;13.40;99.90;;;;;;4923887;29;20043;-83
2023/05/11 08:11:12;;;;;;;33.90;23.77;;;13.40;99.90;;;;;;4923739;29;20039;-83
2023/05/11 08:13:38;;;;;;;29.90;22.35;;;13.30;99.90;;;;;;4892576;29;20615;-82
2023/05/11 08:16:04;;;;;;;29.35;22.67;;;13.40;99.90;;;;;;4892412;29;20054;-83
2023/05/11 08:18:30;;;;;;;33.17;23.75;;;13.40;99.90;;;;;;4923865;29;20522;-82
2023/05/11 08:20:56;;;;;;;30.80;22.35;;;13.40;99.90;;;;;;4923687;29;20053;-82
2023/05/11 08:23:22;;;;;;;32.22;23.02;;;13.40;99.90;;;;;;4923640;29;20126;-82
2023/05/11 08:25:50;;;;;;;30.85;23.10;;;13.40;99.90;;;;;;4923393;29;20375;-81
2023/05/11 08:28:17;;;;;;;29.30;21.55;;;13.40;99.90;;;;;;4955275;29;20131;-80
2023/05/11 08:30:42;;;;;;;32.25;23.13;;;13.50;99.90;;;;;;4955548;29;20050;-80
2023/05/11 08:33:08;;;;;;;33.33;23.55;;;13.50;99.90;;;;;;4923802;29;20031;-80
2023/05/11 08:35:34;;;;;;;33.03;22.92;;;13.50;99.90;;;;;;4955070;29;20058;-81
2023/05/11 08:38:00;;;;;;;33.55;24.30;;;13.50;99.90;;;;;;4922365;29;20451;-82
2023/05/11 08:40:27;;;;;;;33.28;23.80;;;13.50;99.90;;;;;;4923477;29;20043;-84
2023/05/11 08:42:55;;;;;;;35.60;23.58;;;13.40;99.90;;;;;;4955252;29;20570;-85
2023/05/11 08:45:22;;;;;;;30.58;21.70;;;13.40;99.90;;;;;;4923324;29;20051;-86
2023/05/11 08:47:48;;;;;;;25.80;17.75;;;13.30;99.90;;;;;;4923171;29;20043;-85
2023/05/11 08:50:14;;;;;;;25.95;17.55;;;13.30;99.90;;;;;;4955161;29;20491;-85
2023/05/11 08:52:40;;;;;;;23.38;15.90;;;13.30;99.90;;;;;;4922981;29;20039;-85
2023/05/11 08:55:10;;;;;;;21.65;14.80;;;13.30;99.90;;;;;;4954503;29;20059;-83
2023/05/11 08:57:37;;;;;;;22.40;14.95;;;13.20;99.90;;;;;;4938767;29;20105;-84
2023/05/11 09:00:04;;;;;;;21.20;13.82;;;13.20;99.90;;;;;;4954936;29;20047;-83
2023/05/11 09:02:30;;;;;;;18.70;13.05;;;13.20;99.90;;;;;;4954556;29;20050;-83
2023/05/11 09:04:58;;;;;;;19.02;12.55;;;13.20;99.90;;;;;;4954585;29;20058;-83
2023/05/11 09:07:25;;;;;;;18.58;12.30;;;13.20;99.90;;;;;;4954393;29;20050;-83
2023/05/11 09:09:51;;;;;;;17.77;12.70;;;13.20;99.90;;;;;;4954419;29;20134;-84
2023/05/11 09:12:19;;;;;;;19.38;13.05;;;13.10;99.90;;;;;;4922616;29;20039;-84
2023/05/11 09:14:46;;;;;;;19.10;12.82;;;13.10;99.90;;;;;;4954256;29;20082;-84
2023/05/11 09:17:12;;;;;;;18.55;12.43;;;13.00;99.90;;;;;;4922524;29;20035;-83
2023/05/11 09:20:05;;;;;;;19.15;12.45;;;13.00;99.90;;;;;;4891542;29;20475;-83
2023/05/11 09:22:41;;;;;;;18.83;12.55;;;13.00;99.90;;;;;;4954261;29;20110;-82
2023/05/11 09:25:11;;;;;;;18.75;12.07;;;13.00;99.90;;;;;;4954144;29;20043;-84
2023/05/11 09:27:45;;;;;;;20.27;12.85;;;13.10;99.90;;;;;;4954434;29;20043;-85
2023/05/11 09:30:12;;;;;;;20.30;13.30;;;13.10;99.90;;;;;;4954392;29;20043;-84
2023/05/11 09:32:56;;;;;;;21.45;14.45;;;13.10;99.90;;;;;;4954069;28;20039;-84
2023/05/11 09:35:29;;;;;;;21.38;14.13;;;13.10;99.90;;;;;;4954550;29;20371;-83
2023/05/11 09:38:17;;;;;;;22.17;14.02;;;13.20;99.90;;;;;;4954442;29;20470;-80
2023/05/11 09:40:56;;;;;;;15.60;10.35;;;13.10;99.90;;;;;;4954334;29;20403;-80
2023/05/11 09:43:27;;;;;;;15.02;10.20;;;13.20;99.90;;;;;;4906474;29;20046;-79
2023/05/11 09:46:00;;;;;;;13.43;8.57;;;13.20;99.90;;;;;;4922331;29;20036;-80
2023/05/11 09:48:30;;;;;;;12.23;7.80;;;13.20;99.90;;;;;;4922447;28;20043;-80
2023/05/11 09:51:02;;;;;;;13.20;8.43;;;13.20;99.90;;;;;;4938074;29;20042;-79
2023/05/11 09:53:36;;;;;;;14.27;8.98;;;13.30;99.90;;;;;;4922372;29;20050;-79
2023/05/11 09:56:03;;;;;;;13.88;8.73;;;13.30;99.90;;;;;;4953583;29;20063;-79
2023/05/11 09:58:52;;;;;;;14.27;9.98;;;13.30;99.90;;;;;;4922144;29;20054;-80
2023/05/11 10:01:28;;;;;;;15.02;10.00;;;13.30;99.90;;;;;;4954106;29;20041;-80
2023/05/11 10:03:54;;;;;;;17.38;10.95;;;13.30;99.90;;;;;;4954368;29;20219;-79
2023/05/11 10:06:20;;;;;;;15.45;10.98;;;13.40;99.90;;;;;;4937643;29;20043;-79
2023/05/11 10:08:47;;;;;;;18.50;12.48;;;13.40;99.90;;;;;;4953974;29;20098;-80
2023/05/11 10:11:13;;;;;;;15.88;10.35;;;13.40;99.90;;;;;;4922251;29;20087;-79
2023/05/11 10:13:41;;;;;;;18.48;12.30;;;13.40;99.90;;;;;;4922002;29;20042;-79
2023/05/11 10:16:09;;;;;;;17.73;11.90;;;13.50;99.90;;;;;;4937712;29;20126;-79
2023/05/11 10:18:36;;;;;;;18.13;12.40;;;13.50;99.90;;;;;;4906528;29;20407;-78
2023/05/11 10:21:03;;;;;;;20.02;13.65;;;13.60;99.90;;;;;;4953660;29;20051;-78
2023/05/11 10:23:32;;;;;;;21.02;14.55;;;13.60;99.90;;;;;;4953937;29;20491;-78
2023/05/11 10:25:59;;;;;;;21.50;14.55;;;13.60;99.90;;;;;;4953411;29;20043;-78
2023/05/11 10:28:25;;;;;;;24.40;16.77;;;13.60;99.90;;;;;;4953823;29;20408;-78
2023/05/11 10:30:52;;;;;;;21.17;15.07;;;13.60;99.90;;;;;;4921880;29;20054;-79
2023/05/11 10:33:18;;;;;;;23.13;15.90;;;13.60;99.90;;;;;;4922104;29;20399;-78
2023/05/11 10:35:45;;;;;;;24.15;17.40;;;13.70;99.90;;;;;;4921548;29;20043;-78
2023/05/11 10:38:12;;;;;;;25.35;17.98;;;13.70;99.90;;;;;;4906355;29;20510;-78
2023/05/11 10:40:41;;;;;;;26.20;18.73;;;13.80;99.90;;;;;;4953351;29;20047;-78
2023/05/11 10:43:13;;;;;;;24.75;17.60;;;13.80;99.90;;;;;;4953418;29;20051;-78
2023/05/11 10:45:56;;;;;;;27.30;19.30;;;13.90;99.90;;;;;;4921445;29;20043;-78
2023/05/11 10:48:51;;;;;;;26.10;19.08;;;13.90;99.90;;;;;;4953704;29;20047;-78
2023/05/11 10:51:27;;;;;;;25.17;19.15;;;14.00;99.90;;;;;;4953405;29;20043;-78
2023/05/11 10:53:56;;;;;;;24.90;18.63;;;14.00;99.90;;;;;;4937415;29;20082;-78
2023/05/11 10:56:41;;;;;;;25.30;18.77;;;14.10;99.90;;;;;;4953167;29;20051;-78
2023/05/11 10:59:36;;;;;;;23.10;18.40;;;14.10;99.90;;;;;;4937512;29;20090;-78
2023/05/11 11:02:02;;;;;;;26.85;20.48;;;14.20;99.90;;;;;;4937794;29;20487;-78
2023/05/11 11:04:42;;;;;;;25.45;20.00;;;14.30;99.90;;;;;;4941168;29;20051;-78
2023/05/11 11:07:08;;;;;;;24.38;19.30;;;14.30;99.90;;;;;;4925016;29;20042;-78
2023/05/11 11:09:53;;;;;;;25.00;20.08;;;14.40;99.90;;;;;;4956915;29;20395;-77
2023/05/11 11:12:20;;;;;;;27.33;20.05;;;14.50;99.90;;;;;;4956686;29;20043;-78
2023/05/11 11:15:08;;;;;;;23.50;19.02;;;14.60;99.90;;;;;;4956803;29;20039;-78
2023/05/11 11:17:34;;;;;;;20.45;16.60;;;14.60;99.90;;;;;;4956847;29;20483;-78
2023/05/11 11:20:06;;;;;;;18.75;15.35;;;14.60;99.90;;;;;;4925039;29;20483;-78
2023/05/11 11:22:37;;;;;;;20.95;17.90;;;14.70;99.90;;;;;;4956727;29;20039;-78
2023/05/11 11:25:05;;;;;;;22.42;17.55;;;14.80;99.90;;;;;;4924630;29;20130;-79
2023/05/11 11:27:40;;;;;;;20.58;16.65;;;14.80;99.90;;;;;;4924771;29;20519;-79
2023/05/11 11:30:27;;;;;;;21.20;17.88;;;15.00;99.90;;;;;;4924778;29;20066;-80
2023/05/11 11:33:14;;;;;;;20.80;17.33;;;15.20;99.90;;;;;;4909921;29;20514;-80
2023/05/11 11:35:41;;;;;;;20.52;16.90;;;15.40;99.90;;;;;;4930703;29;20514;-80
2023/05/11 11:38:12;;;;;;;19.60;15.55;;;15.60;99.90;;;;;;4940942;29;20090;-81
2023/05/11 11:40:40;;;;;;;17.67;15.10;;;15.70;99.90;;;;;;4956141;29;20081;-80
2023/05/11 11:43:16;;;;;;;18.00;15.52;;;15.90;99.90;;;;;;4924150;29;20074;-81
2023/05/11 11:45:56;;;;;;;17.77;14.93;;;15.90;99.90;;;;;;4940055;29;20039;-80
2023/05/11 11:48:34;;;;;;;16.98;14.13;;;16.10;99.90;;;;;;4940031;29;20054;-80
2023/05/11 11:51:09;;;;;;;18.10;14.20;;;16.30;99.90;;;;;;4956250;29;20387;-80
2023/05/11 11:53:42;;;;;;;18.33;13.93;;;16.40;99.90;;;;;;4955934;29;20050;-80
2023/05/11 11:56:14;;;;;;;14.65;12.35;;;16.40;99.90;;;;;;4923770;29;20099;-80
2023/05/11 11:58:43;;;;;;;14.55;12.32;;;16.40;99.90;;;;;;4939846;29;20388;-80
2023/05/11 12:01:16;;;;;;;15.35;12.57;;;16.40;99.90;;;;;;4923937;29;20083;-80
2023/05/11 12:03:43;;;;;;;16.73;13.05;;;16.40;99.90;;;;;;4924069;29;20039;-81
2023/05/11 12:06:10;;;;;;;15.15;12.13;;;16.30;99.90;;;;;;4923791;29;20107;-81
2023/05/11 12:08:37;;;;;;;14.68;12.57;;;16.30;99.90;;;;;;4924054;29;20043;-81
2023/05/11 12:11:04;;;;;;;15.00;11.25;;;16.40;99.90;;;;;;4955664;29;20046;-81
2023/05/11 12:13:32;;;;;;;14.65;12.35;;;16.30;99.90;;;;;;4955423;28;20166;-81
2023/05/11 12:16:27;;;;;;;14.50;11.52;;;16.40;99.90;;;;;;4923906;29;20523;-81
2023/05/11 12:18:55;;;;;;;16.38;11.30;;;16.30;99.90;;;;;;4918360;29;20051;-81
2023/05/11 12:21:30;;;;;;;14.23;11.85;;;16.30;99.90;;;;;;4955493;29;20043;-80
2023/05/11 12:24:01;;;;;;;14.15;11.93;;;16.20;99.90;;;;;;4955630;29;20514;-80
2023/05/11 12:26:28;;;;;;;13.85;11.45;;;16.30;99.90;;;;;;4955284;29;20043;-80
2023/05/11 12:29:12;;;;;;;15.85;11.80;;;16.20;99.90;;;;;;4955170;28;20133;-80
2023/05/11 12:31:40;;;;;;;15.05;11.82;;;16.10;99.90;;;;;;4955583;29;20050;-80
2023/05/11 12:34:12;;;;;;;13.40;10.80;;;16.10;99.90;;;;;;4955104;29;20129;-80
2023/05/11 12:36:38;;;;;;;;;;;16.20;99.90;;;;;;4955655;29;20050;-80